Coronel Fabriciano, Brazil
Current Conditions -  °F | °C
As of 6:00 PM on Friday 28 Nov 2014 (Local Time) from SBIP Reporting Station
Thunderstorm Thunderstorm  
Wind Chill: 79°   Ceiling: 7000
Heat Index: 82°   Visibility: 6mi
Dew Point: 72°   Wind: 7mph
Humidity: 78%   Direction: 210°SSW
Pressure: 29.88"   Gusts: NA
Location:  19.53°S, 42.64°W
Report Text: SBIP 282000Z 21006KT 9999 -TSRA SCT030 FEW040CB BKN070 26/22 Q1012
Loading
Personal Weather Stations






























Interactive Weather Map New forecast layout! Learn more

10-Day Weather Forecast

Advertisements
Track Severe Weather on mobile